createdAt,value
2023-05-21T00:00:29.870Z,18.58
2023-05-21T00:01:01.315Z,18.57
2023-05-21T00:01:32.798Z,18.57
2023-05-21T00:02:04.243Z,18.58
2023-05-21T00:02:35.772Z,18.58
2023-05-21T00:03:07.351Z,18.58
2023-05-21T00:03:38.981Z,18.57
2023-05-21T00:04:10.575Z,18.58
2023-05-21T00:04:42.016Z,18.58
2023-05-21T00:05:14.733Z,18.57
2023-05-21T00:05:46.549Z,18.57
2023-05-21T00:06:18.047Z,18.57
2023-05-21T00:06:49.531Z,18.56
2023-05-21T00:07:20.977Z,18.55
2023-05-21T00:07:52.474Z,18.56
2023-05-21T00:08:23.947Z,18.56
2023-05-21T00:08:55.381Z,18.56
2023-05-21T00:09:26.831Z,18.54
2023-05-21T00:09:58.281Z,18.56
2023-05-21T00:10:29.754Z,18.55
2023-05-21T00:11:01.233Z,18.55
2023-05-21T00:11:32.666Z,18.55
2023-05-21T00:12:04.141Z,18.55
2023-05-21T00:12:35.600Z,18.54
2023-05-21T00:13:07.084Z,18.54
2023-05-21T00:13:38.536Z,18.53
2023-05-21T00:14:09.978Z,18.55
2023-05-21T00:14:41.433Z,18.55
2023-05-21T00:15:12.921Z,18.53
2023-05-21T00:15:44.360Z,18.53
2023-05-21T00:16:15.850Z,18.54
2023-05-21T00:16:47.353Z,18.54
2023-05-21T00:17:18.886Z,18.53
2023-05-21T00:17:50.349Z,18.53
2023-05-21T00:18:21.880Z,18.54
2023-05-21T00:18:53.370Z,18.53
2023-05-21T00:19:24.865Z,18.53
2023-05-21T00:19:56.322Z,18.52
2023-05-21T00:20:27.786Z,18.52
2023-05-21T00:20:59.229Z,18.53
2023-05-21T00:21:30.685Z,18.52
2023-05-21T00:22:02.119Z,18.52
2023-05-21T00:22:33.563Z,18.51
2023-05-21T00:23:05.010Z,18.50
2023-05-21T00:23:36.479Z,18.50
2023-05-21T00:24:07.922Z,18.50
2023-05-21T00:24:39.368Z,18.49
2023-05-21T00:25:10.820Z,18.50
2023-05-21T00:25:42.274Z,18.48
2023-05-21T00:26:13.705Z,18.49
2023-05-21T00:26:45.164Z,18.49
2023-05-21T00:27:16.637Z,18.49
2023-05-21T00:27:48.076Z,18.49
2023-05-21T00:28:19.528Z,18.49
2023-05-21T00:28:51.004Z,18.49
2023-05-21T00:29:22.442Z,18.49
2023-05-21T00:29:53.879Z,18.49
2023-05-21T00:30:25.316Z,18.49
2023-05-21T00:30:56.763Z,18.48
2023-05-21T00:31:28.271Z,18.49
2023-05-21T00:31:59.762Z,18.48
2023-05-21T00:32:31.256Z,18.48
2023-05-21T00:33:02.955Z,18.49
2023-05-21T00:33:34.558Z,18.47
2023-05-21T00:34:06.543Z,18.49
2023-05-21T00:34:38.007Z,18.47
2023-05-21T00:35:09.438Z,18.48
2023-05-21T00:35:40.873Z,18.48
2023-05-21T00:36:12.310Z,18.47
2023-05-21T00:36:43.789Z,18.47
2023-05-21T00:37:15.280Z,18.47
2023-05-21T00:37:46.743Z,18.47
2023-05-21T00:38:18.188Z,18.47
2023-05-21T00:38:49.627Z,18.46
2023-05-21T00:39:21.085Z,18.46
2023-05-21T00:39:52.529Z,18.46
2023-05-21T00:40:23.967Z,18.45
2023-05-21T00:40:55.398Z,18.45
2023-05-21T00:41:26.850Z,18.45
2023-05-21T00:41:58.285Z,18.43
2023-05-21T00:42:29.812Z,18.44
2023-05-21T00:43:01.301Z,18.44
2023-05-21T00:43:32.760Z,18.44
2023-05-21T00:44:04.200Z,18.45
2023-05-21T00:44:35.646Z,18.43
2023-05-21T00:45:07.110Z,18.44
2023-05-21T00:45:38.852Z,18.44
2023-05-21T00:46:10.529Z,18.43
2023-05-21T00:46:41.999Z,18.44
2023-05-21T00:47:13.448Z,18.43
2023-05-21T00:47:44.936Z,18.42
2023-05-21T00:48:16.441Z,18.43
2023-05-21T00:48:47.898Z,18.43
2023-05-21T00:49:19.342Z,18.42
2023-05-21T00:49:50.783Z,18.43
2023-05-21T00:50:22.243Z,18.42
2023-05-21T00:50:53.674Z,18.41
2023-05-21T00:51:25.120Z,18.42
2023-05-21T00:51:56.652Z,18.43
2023-05-21T00:52:28.097Z,18.42
2023-05-21T00:52:59.558Z,18.41
2023-05-21T00:53:31.009Z,18.41
2023-05-21T00:54:02.473Z,18.42
2023-05-21T00:54:33.944Z,18.39
2023-05-21T00:55:05.400Z,18.39
2023-05-21T00:55:37.137Z,18.39
2023-05-21T00:56:08.723Z,18.39
2023-05-21T00:56:40.170Z,18.38
2023-05-21T00:57:11.619Z,18.38
2023-05-21T00:57:43.051Z,18.38
2023-05-21T00:58:14.489Z,18.37
2023-05-21T00:58:45.931Z,18.37
2023-05-21T00:59:17.379Z,18.37
2023-05-21T00:59:48.819Z,18.38
2023-05-21T01:00:20.278Z,18.38
2023-05-21T01:00:51.822Z,18.37
2023-05-21T01:01:23.296Z,18.37
2023-05-21T01:01:54.801Z,18.37
2023-05-21T01:02:26.368Z,18.36
2023-05-21T01:02:57.967Z,18.35
2023-05-21T01:03:29.607Z,18.35
2023-05-21T01:04:01.122Z,18.35
2023-05-21T01:04:32.596Z,18.35
2023-05-21T01:05:04.039Z,18.35
2023-05-21T01:05:35.618Z,18.35
2023-05-21T01:06:07.247Z,18.35
2023-05-21T01:06:38.712Z,18.35
2023-05-21T01:07:10.145Z,18.33
2023-05-21T01:07:41.700Z,18.34
2023-05-21T01:08:13.230Z,18.33
2023-05-21T01:08:44.667Z,18.33
2023-05-21T01:09:16.122Z,18.33
2023-05-21T01:09:47.573Z,18.33
2023-05-21T01:10:19.016Z,18.33
2023-05-21T01:10:50.462Z,18.33
2023-05-21T01:11:21.893Z,18.31
2023-05-21T01:11:53.395Z,18.31
2023-05-21T01:12:24.843Z,18.32
2023-05-21T01:12:56.287Z,18.31
2023-05-21T01:13:27.738Z,18.31
2023-05-21T01:13:59.183Z,18.31
2023-05-21T01:14:30.628Z,18.31
2023-05-21T01:15:02.116Z,18.31
2023-05-21T01:15:33.648Z,18.30
2023-05-21T01:16:05.147Z,18.31
2023-05-21T01:16:36.654Z,18.31
2023-05-21T01:17:08.257Z,18.30
2023-05-21T01:17:39.829Z,18.30
2023-05-21T01:18:11.348Z,18.30
2023-05-21T01:18:42.877Z,18.28
2023-05-21T01:19:14.457Z,18.29
2023-05-21T01:19:46.066Z,18.28
2023-05-21T01:20:17.576Z,18.28
2023-05-21T01:20:49.024Z,18.28
2023-05-21T01:21:20.463Z,18.28
2023-05-21T01:21:51.954Z,18.28
2023-05-21T01:22:23.407Z,18.28
2023-05-21T01:22:54.855Z,18.28
2023-05-21T01:23:26.292Z,18.27
2023-05-21T01:23:57.759Z,18.27
2023-05-21T01:24:29.200Z,18.27
2023-05-21T01:25:00.715Z,18.26
2023-05-21T01:25:32.188Z,18.26
2023-05-21T01:26:03.632Z,18.27
2023-05-21T01:26:35.093Z,18.26
2023-05-21T01:27:06.619Z,18.25
2023-05-21T01:27:38.144Z,18.25
2023-05-21T01:28:09.591Z,18.26
2023-05-21T01:28:41.036Z,18.26
2023-05-21T01:29:12.487Z,18.25
2023-05-21T01:29:43.931Z,18.25
2023-05-21T01:30:15.371Z,18.25
2023-05-21T01:30:46.814Z,18.24
2023-05-21T01:31:18.674Z,18.24
2023-05-21T01:31:50.133Z,18.24
2023-05-21T01:32:21.582Z,18.23
2023-05-21T01:32:53.081Z,18.24
2023-05-21T01:33:24.642Z,18.23
2023-05-21T01:33:56.168Z,18.24
2023-05-21T01:34:27.752Z,18.23
2023-05-21T01:34:59.182Z,18.23
2023-05-21T01:35:30.658Z,18.22
2023-05-21T01:36:02.106Z,18.22
2023-05-21T01:36:33.550Z,18.23
2023-05-21T01:37:05.006Z,18.23
2023-05-21T01:37:36.460Z,18.23
2023-05-21T01:38:07.895Z,18.22
2023-05-21T01:38:39.340Z,18.22
2023-05-21T01:39:10.780Z,18.22
2023-05-21T01:39:42.220Z,18.22
2023-05-21T01:40:13.663Z,18.20
2023-05-21T01:40:45.166Z,18.21
2023-05-21T01:41:16.610Z,18.22
2023-05-21T01:41:48.080Z,18.20
2023-05-21T01:42:19.541Z,18.20
2023-05-21T01:42:50.977Z,18.20
2023-05-21T01:43:22.427Z,18.18
2023-05-21T01:43:53.890Z,18.20
2023-05-21T01:44:25.389Z,18.20
2023-05-21T01:44:56.876Z,18.19
2023-05-21T01:45:28.309Z,18.18
2023-05-21T01:45:59.775Z,18.19
2023-05-21T01:46:31.304Z,18.18
2023-05-21T01:47:02.774Z,18.19
2023-05-21T01:47:34.245Z,18.18
2023-05-21T01:48:05.728Z,18.18
2023-05-21T01:48:37.208Z,18.19
2023-05-21T01:49:08.659Z,18.18
2023-05-21T01:49:40.122Z,18.19
2023-05-21T01:50:11.573Z,18.18
2023-05-21T01:50:43.011Z,18.17
2023-05-21T01:51:14.450Z,18.16
2023-05-21T01:51:45.944Z,18.17
2023-05-21T01:52:17.382Z,18.17
2023-05-21T01:52:48.857Z,18.17
2023-05-21T01:53:20.326Z,18.17
2023-05-21T01:53:51.791Z,18.15
2023-05-21T01:54:23.250Z,18.16
2023-05-21T01:54:54.708Z,18.17
2023-05-21T01:55:26.141Z,18.14
2023-05-21T01:55:57.570Z,18.15
2023-05-21T01:56:29.054Z,18.14
2023-05-21T01:57:00.491Z,18.14
2023-05-21T01:57:31.935Z,18.13
2023-05-21T01:58:03.386Z,18.14
2023-05-21T01:58:34.830Z,18.14
2023-05-21T01:59:06.300Z,18.13
2023-05-21T01:59:37.742Z,18.12
2023-05-21T02:00:09.193Z,18.13
2023-05-21T02:00:40.651Z,18.12
2023-05-21T02:01:12.083Z,18.13
2023-05-21T02:01:43.586Z,18.13
2023-05-21T02:02:15.186Z,18.13
2023-05-21T02:02:46.799Z,18.13
2023-05-21T02:03:18.374Z,18.12
2023-05-21T02:03:49.976Z,18.10
2023-05-21T02:04:21.471Z,18.11
2023-05-21T02:04:52.907Z,18.12
2023-05-21T02:05:24.337Z,18.12
2023-05-21T02:05:55.882Z,18.12
2023-05-21T02:06:27.337Z,18.11
2023-05-21T02:06:58.803Z,18.09
2023-05-21T02:07:30.237Z,18.09
2023-05-21T02:08:01.697Z,18.09
2023-05-21T02:08:33.133Z,18.09
2023-05-21T02:09:04.597Z,18.09
2023-05-21T02:09:36.040Z,18.09
2023-05-21T02:10:07.477Z,18.09
2023-05-21T02:10:38.920Z,18.10
2023-05-21T02:11:10.351Z,18.09
2023-05-21T02:11:41.783Z,18.08
2023-05-21T02:12:13.371Z,18.09
2023-05-21T02:12:44.841Z,18.08
2023-05-21T02:13:16.331Z,18.08
2023-05-21T02:13:47.775Z,18.06
2023-05-21T02:14:19.224Z,18.08
2023-05-21T02:14:50.667Z,18.08
2023-05-21T02:15:22.112Z,18.08
2023-05-21T02:15:53.597Z,18.08
2023-05-21T02:16:25.091Z,18.06
2023-05-21T02:16:56.566Z,18.05
2023-05-21T02:17:28.028Z,18.05
2023-05-21T02:17:59.538Z,18.06
2023-05-21T02:18:31.022Z,18.06
2023-05-21T02:19:02.479Z,18.06
2023-05-21T02:19:34.071Z,18.05
2023-05-21T02:20:05.661Z,18.06
2023-05-21T02:20:37.106Z,18.04
2023-05-21T02:21:08.543Z,18.05
2023-05-21T02:21:39.988Z,18.06
2023-05-21T02:22:11.434Z,18.05
2023-05-21T02:22:42.883Z,18.06
2023-05-21T02:23:14.332Z,18.05
2023-05-21T02:23:45.805Z,18.04
2023-05-21T02:24:17.233Z,18.04
2023-05-21T02:24:48.671Z,18.04
2023-05-21T02:25:20.103Z,18.04
2023-05-21T02:25:51.558Z,18.04
2023-05-21T02:26:23.016Z,18.03
2023-05-21T02:26:54.478Z,18.03
2023-05-21T02:27:25.919Z,18.04
2023-05-21T02:27:57.354Z,18.02
2023-05-21T02:28:28.795Z,18.04
2023-05-21T02:29:00.286Z,18.03
2023-05-21T02:29:31.735Z,18.03
2023-05-21T02:30:03.212Z,18.02
2023-05-21T02:30:34.650Z,18.02
2023-05-21T02:31:06.123Z,18.02
2023-05-21T02:31:37.557Z,18.02
2023-05-21T02:32:09.013Z,18.01
2023-05-21T02:32:40.509Z,18.02
2023-05-21T02:33:11.983Z,18.01
2023-05-21T02:33:43.461Z,18.01
2023-05-21T02:34:15.005Z,18.00
2023-05-21T02:34:46.483Z,18.00
2023-05-21T02:35:17.932Z,18.01
2023-05-21T02:35:49.376Z,18.00
2023-05-21T02:36:20.851Z,17.99
2023-05-21T02:36:52.336Z,17.99
2023-05-21T02:37:23.818Z,18.00
2023-05-21T02:37:55.291Z,18.00
2023-05-21T02:38:26.781Z,18.00
2023-05-21T02:38:58.242Z,18.00
2023-05-21T02:39:29.735Z,18.00
2023-05-21T02:40:01.169Z,17.99
2023-05-21T02:40:32.613Z,18.00
2023-05-21T02:41:04.052Z,17.99
2023-05-21T02:41:35.497Z,17.98
2023-05-21T02:42:06.940Z,17.98
2023-05-21T02:42:38.383Z,17.98
2023-05-21T02:43:09.861Z,17.99
2023-05-21T02:43:41.325Z,17.98
2023-05-21T02:44:12.813Z,17.97
2023-05-21T02:44:44.258Z,17.97
2023-05-21T02:45:15.707Z,17.98
2023-05-21T02:45:47.164Z,17.97
2023-05-21T02:46:18.710Z,17.97
2023-05-21T02:46:50.239Z,17.96
2023-05-21T02:47:21.679Z,17.96
2023-05-21T02:47:53.204Z,17.95
2023-05-21T02:48:24.730Z,17.95
2023-05-21T02:48:56.173Z,17.96
2023-05-21T02:49:27.664Z,17.96
2023-05-21T02:49:59.102Z,17.96
2023-05-21T02:50:30.535Z,17.96
2023-05-21T02:51:01.969Z,17.96
2023-05-21T02:51:33.409Z,17.96
2023-05-21T02:52:04.846Z,17.95
2023-05-21T02:52:36.279Z,17.96
2023-05-21T02:53:07.718Z,17.95
2023-05-21T02:53:39.183Z,17.95
2023-05-21T02:54:10.640Z,17.94
2023-05-21T02:54:42.139Z,17.95
2023-05-21T02:55:13.616Z,17.95
2023-05-21T02:55:45.096Z,17.94
2023-05-21T02:56:16.554Z,17.94
2023-05-21T02:56:48.001Z,17.94
2023-05-21T02:57:19.459Z,17.94
2023-05-21T02:57:50.942Z,17.94
2023-05-21T02:58:22.388Z,17.92
2023-05-21T02:58:53.836Z,17.92
2023-05-21T02:59:25.278Z,17.92
2023-05-21T02:59:56.745Z,17.93
2023-05-21T03:00:28.189Z,17.92
2023-05-21T03:00:59.669Z,17.92
2023-05-21T03:01:31.148Z,17.92
2023-05-21T03:02:02.667Z,17.91
2023-05-21T03:02:34.215Z,17.90
2023-05-21T03:03:05.791Z,17.91
2023-05-21T03:03:37.388Z,17.90
2023-05-21T03:04:08.898Z,17.91
2023-05-21T03:04:40.342Z,17.90
2023-05-21T03:05:11.826Z,17.90
2023-05-21T03:05:43.277Z,17.89
2023-05-21T03:06:14.705Z,17.90
2023-05-21T03:06:46.147Z,17.90
2023-05-21T03:07:17.580Z,17.89
2023-05-21T03:07:49.029Z,17.90
2023-05-21T03:08:20.467Z,17.91
2023-05-21T03:08:51.916Z,17.88
2023-05-21T03:09:23.365Z,17.89
2023-05-21T03:09:54.830Z,17.89
2023-05-21T03:10:26.329Z,17.89
2023-05-21T03:10:57.765Z,17.89
2023-05-21T03:11:29.211Z,17.89
2023-05-21T03:12:00.654Z,17.88
2023-05-21T03:12:32.109Z,17.88
2023-05-21T03:13:03.583Z,17.88
2023-05-21T03:13:35.184Z,17.87
2023-05-21T03:14:06.660Z,17.88
2023-05-21T03:14:38.118Z,17.87
2023-05-21T03:15:09.564Z,17.88
2023-05-21T03:15:41.023Z,17.86
2023-05-21T03:16:12.492Z,17.88
2023-05-21T03:16:44.003Z,17.88
2023-05-21T03:17:15.518Z,17.88
2023-05-21T03:17:46.995Z,17.87
2023-05-21T03:18:18.459Z,17.87
2023-05-21T03:18:49.973Z,17.87
2023-05-21T03:19:21.491Z,17.87
2023-05-21T03:19:52.992Z,17.87
2023-05-21T03:20:24.457Z,17.86
2023-05-21T03:20:55.946Z,17.86
2023-05-21T03:21:27.400Z,17.86
2023-05-21T03:21:58.846Z,17.86
2023-05-21T03:22:30.295Z,17.86
2023-05-21T03:23:01.762Z,17.85
2023-05-21T03:23:33.203Z,17.86
2023-05-21T03:24:04.631Z,17.85
2023-05-21T03:24:36.069Z,17.84
2023-05-21T03:25:07.506Z,17.86
2023-05-21T03:25:38.949Z,17.84
2023-05-21T03:26:10.421Z,17.84
2023-05-21T03:26:41.862Z,17.83
2023-05-21T03:27:13.320Z,17.84
2023-05-21T03:27:44.778Z,17.84
2023-05-21T03:28:16.219Z,17.83
2023-05-21T03:28:47.652Z,17.84
2023-05-21T03:29:19.091Z,17.83
2023-05-21T03:29:50.527Z,17.84
2023-05-21T03:30:21.970Z,17.83
2023-05-21T03:30:53.409Z,17.83
2023-05-21T03:31:24.983Z,17.83
2023-05-21T03:31:56.521Z,17.83
2023-05-21T03:32:28.069Z,17.83
2023-05-21T03:32:59.582Z,17.83
2023-05-21T03:33:31.071Z,17.84
2023-05-21T03:34:02.528Z,17.82
2023-05-21T03:34:33.972Z,17.81
2023-05-21T03:35:05.411Z,17.82
2023-05-21T03:35:37.075Z,17.83
2023-05-21T03:36:08.681Z,17.82
2023-05-21T03:36:40.152Z,17.82
2023-05-21T03:37:11.615Z,17.82
2023-05-21T03:37:43.098Z,17.82
2023-05-21T03:38:14.542Z,17.82
2023-05-21T03:38:45.981Z,17.83
2023-05-21T03:39:17.447Z,17.82
2023-05-21T03:39:48.893Z,17.82
2023-05-21T03:40:20.344Z,17.81
2023-05-21T03:40:51.790Z,17.81
2023-05-21T03:41:23.235Z,17.81
2023-05-21T03:41:54.707Z,17.81
2023-05-21T03:42:26.145Z,17.81
2023-05-21T03:42:57.598Z,17.81
2023-05-21T03:43:29.040Z,17.81
2023-05-21T03:44:00.486Z,17.81
2023-05-21T03:44:31.940Z,17.82
2023-05-21T03:45:03.387Z,17.80
2023-05-21T03:45:35.020Z,17.80
2023-05-21T03:46:06.640Z,17.80
2023-05-21T03:46:38.277Z,17.80
2023-05-21T03:47:09.857Z,17.81
2023-05-21T03:47:41.338Z,17.81
2023-05-21T03:48:12.802Z,17.80
2023-05-21T03:48:44.253Z,17.80
2023-05-21T03:49:15.689Z,17.80
2023-05-21T03:49:47.137Z,17.81
2023-05-21T03:50:18.574Z,17.80
2023-05-21T03:50:50.008Z,17.80
2023-05-21T03:51:21.518Z,17.80
2023-05-21T03:51:52.970Z,17.81
2023-05-21T03:52:24.434Z,17.79
2023-05-21T03:52:55.875Z,17.79
2023-05-21T03:53:27.316Z,17.80
2023-05-21T03:53:58.763Z,17.79
2023-05-21T03:54:30.224Z,17.79
2023-05-21T03:55:01.679Z,17.81
2023-05-21T03:55:33.207Z,17.80
2023-05-21T03:56:04.660Z,17.79
2023-05-21T03:56:36.103Z,17.79
2023-05-21T03:57:07.560Z,17.78
2023-05-21T03:57:39.059Z,17.80
2023-05-21T03:58:10.496Z,17.80
2023-05-21T03:58:41.945Z,17.80
2023-05-21T03:59:13.395Z,17.80
2023-05-21T03:59:44.860Z,17.79
2023-05-21T04:00:16.300Z,17.79
2023-05-21T04:00:47.756Z,17.78
2023-05-21T04:01:19.222Z,17.78
2023-05-21T04:01:50.671Z,17.78
2023-05-21T04:02:22.200Z,17.78
2023-05-21T04:02:53.838Z,17.78
2023-05-21T04:03:25.447Z,17.78
2023-05-21T04:03:57.128Z,17.77
2023-05-21T04:04:28.882Z,17.77
2023-05-21T04:05:00.380Z,17.78
2023-05-21T04:05:31.819Z,17.78
2023-05-21T04:06:03.284Z,17.77
2023-05-21T04:06:34.737Z,17.77
2023-05-21T04:07:06.404Z,17.78
2023-05-21T04:07:37.884Z,17.77
2023-05-21T04:08:09.339Z,17.75
2023-05-21T04:08:40.778Z,17.76
2023-05-21T04:09:12.241Z,17.77
2023-05-21T04:09:43.692Z,17.76
2023-05-21T04:10:15.149Z,17.76
2023-05-21T04:10:46.591Z,17.77
2023-05-21T04:11:18.023Z,17.77
2023-05-21T04:11:49.473Z,17.78
2023-05-21T04:12:20.919Z,17.77
2023-05-21T04:12:52.463Z,17.77
2023-05-21T04:13:23.962Z,17.76
2023-05-21T04:13:55.422Z,17.75
2023-05-21T04:14:26.853Z,17.75
2023-05-21T04:14:58.303Z,17.75
2023-05-21T04:15:29.733Z,17.76
2023-05-21T04:16:01.269Z,17.76
2023-05-21T04:16:32.833Z,17.76
2023-05-21T04:17:04.347Z,17.77
2023-05-21T04:17:35.876Z,17.76
2023-05-21T04:18:07.464Z,17.77
2023-05-21T04:18:38.985Z,17.75
2023-05-21T04:19:10.457Z,17.75
2023-05-21T04:19:41.949Z,17.75
2023-05-21T04:20:13.418Z,17.75
2023-05-21T04:20:44.879Z,17.74
2023-05-21T04:21:16.341Z,17.75
2023-05-21T04:21:47.801Z,17.75
2023-05-21T04:22:19.253Z,17.76
2023-05-21T04:22:50.709Z,17.76
2023-05-21T04:23:22.171Z,17.77
2023-05-21T04:23:53.625Z,17.76
2023-05-21T04:24:25.083Z,17.76
2023-05-21T04:24:56.518Z,17.76
2023-05-21T04:25:27.955Z,17.77
2023-05-21T04:25:59.407Z,17.77
2023-05-21T04:26:30.850Z,17.77
2023-05-21T04:27:02.346Z,17.77
2023-05-21T04:27:33.834Z,17.77
2023-05-21T04:28:05.276Z,17.76
2023-05-21T04:28:36.727Z,17.77
2023-05-21T04:29:08.246Z,17.77
2023-05-21T04:29:39.688Z,17.77
2023-05-21T04:30:11.160Z,17.76
2023-05-21T04:30:42.616Z,17.75
2023-05-21T04:31:14.132Z,17.76
2023-05-21T04:31:45.657Z,17.77
2023-05-21T04:32:17.133Z,17.77
2023-05-21T04:32:48.646Z,17.77
2023-05-21T04:33:20.096Z,17.75
2023-05-21T04:33:51.537Z,17.77
2023-05-21T04:34:23.048Z,17.77
2023-05-21T04:34:54.487Z,17.77
2023-05-21T04:35:25.931Z,17.76
2023-05-21T04:35:57.371Z,17.78
2023-05-21T04:36:28.821Z,17.78
2023-05-21T04:37:00.277Z,17.78
2023-05-21T04:37:31.727Z,17.77
2023-05-21T04:38:04.202Z,17.77
2023-05-21T04:38:35.834Z,17.78
2023-05-21T04:39:07.293Z,17.78
2023-05-21T04:39:38.739Z,17.79
2023-05-21T04:40:10.180Z,17.80
2023-05-21T04:40:41.637Z,17.79
2023-05-21T04:41:13.074Z,17.81
2023-05-21T04:41:44.516Z,17.80
2023-05-21T04:42:15.962Z,17.81
2023-05-21T04:42:47.405Z,17.80
2023-05-21T04:43:18.851Z,17.81
2023-05-21T04:43:50.295Z,17.80
2023-05-21T04:44:21.752Z,17.80
2023-05-21T04:44:53.189Z,17.80
2023-05-21T04:45:24.692Z,17.80
2023-05-21T04:45:56.167Z,17.81
2023-05-21T04:46:27.620Z,17.81
2023-05-21T04:46:59.152Z,17.80
2023-05-21T04:47:30.762Z,17.82
2023-05-21T04:48:02.308Z,17.81
2023-05-21T04:48:33.754Z,17.81
2023-05-21T04:49:05.189Z,17.81
2023-05-21T04:49:36.662Z,17.82
2023-05-21T04:50:08.111Z,17.81
2023-05-21T04:50:39.559Z,17.82
2023-05-21T04:51:10.996Z,17.81
2023-05-21T04:51:42.429Z,17.81
2023-05-21T04:52:13.868Z,17.81
2023-05-21T04:52:45.297Z,17.83
2023-05-21T04:53:16.739Z,17.82
2023-05-21T04:53:48.177Z,17.82
2023-05-21T04:54:19.628Z,17.82
2023-05-21T04:54:51.115Z,17.82
2023-05-21T04:55:22.557Z,17.83
2023-05-21T04:55:54.004Z,17.83
2023-05-21T04:56:25.458Z,17.83
2023-05-21T04:56:56.901Z,17.84
2023-05-21T04:57:28.346Z,17.84
2023-05-21T04:57:59.788Z,17.84
2023-05-21T04:58:31.218Z,17.85
2023-05-21T04:59:05.178Z,17.84
2023-05-21T04:59:36.971Z,17.85
2023-05-21T05:00:08.449Z,17.84
2023-05-21T05:00:39.924Z,17.85
2023-05-21T05:01:11.383Z,17.85
2023-05-21T05:01:42.841Z,17.84
2023-05-21T05:02:14.281Z,17.85
2023-05-21T05:02:45.835Z,17.85
2023-05-21T05:03:17.476Z,17.86
2023-05-21T05:03:48.970Z,17.86
2023-05-21T05:04:20.444Z,17.86
2023-05-21T05:04:51.906Z,17.86
2023-05-21T05:05:23.343Z,17.87
2023-05-21T05:05:54.810Z,17.86
2023-05-21T05:06:26.253Z,17.87
2023-05-21T05:06:57.685Z,17.87
2023-05-21T05:07:29.146Z,17.89
2023-05-21T05:08:00.587Z,17.89
2023-05-21T05:08:32.027Z,17.90
2023-05-21T05:09:03.468Z,17.89
2023-05-21T05:09:34.972Z,17.89
2023-05-21T05:10:06.445Z,17.90
2023-05-21T05:10:37.903Z,17.90
2023-05-21T05:11:09.375Z,17.90
2023-05-21T05:11:40.844Z,17.91
2023-05-21T05:12:12.283Z,17.90
2023-05-21T05:12:43.722Z,17.90
2023-05-21T05:13:15.178Z,17.92
2023-05-21T05:13:46.631Z,17.91
2023-05-21T05:14:18.099Z,17.92
2023-05-21T05:14:49.551Z,17.92
2023-05-21T05:15:21.023Z,17.93
2023-05-21T05:15:54.447Z,17.92
2023-05-21T05:16:26.347Z,17.93
2023-05-21T05:16:57.934Z,17.95
2023-05-21T05:17:29.576Z,17.95
2023-05-21T05:18:01.092Z,17.95
2023-05-21T05:18:32.593Z,17.95
2023-05-21T05:19:04.126Z,17.96
2023-05-21T05:19:35.709Z,17.96
2023-05-21T05:20:07.164Z,17.96
2023-05-21T05:20:38.636Z,17.97
2023-05-21T05:21:10.114Z,17.97
2023-05-21T05:21:41.551Z,17.98
2023-05-21T05:22:13.605Z,17.98
2023-05-21T05:22:45.184Z,17.98
2023-05-21T05:23:16.622Z,17.99
2023-05-21T05:23:48.072Z,17.98
2023-05-21T05:24:19.510Z,17.99
2023-05-21T05:24:50.959Z,18.00
2023-05-21T05:25:22.413Z,18.00
2023-05-21T05:25:53.856Z,17.99
2023-05-21T05:26:25.315Z,18.00
2023-05-21T05:26:56.750Z,18.01
2023-05-21T05:27:28.186Z,18.01
2023-05-21T05:27:59.629Z,18.02
2023-05-21T05:28:31.070Z,18.02
2023-05-21T05:29:02.508Z,18.02
2023-05-21T05:29:33.950Z,18.03
2023-05-21T05:30:05.401Z,18.02
2023-05-21T05:30:36.880Z,18.03
2023-05-21T05:31:08.397Z,18.03
2023-05-21T05:31:39.848Z,18.03
2023-05-21T05:32:11.387Z,18.04
2023-05-21T05:32:42.878Z,18.04
2023-05-21T05:33:14.325Z,18.04
2023-05-21T05:33:45.770Z,18.04
2023-05-21T05:34:17.293Z,18.05
2023-05-21T05:34:48.736Z,18.05
2023-05-21T05:35:20.185Z,18.06
2023-05-21T05:35:51.627Z,18.06
2023-05-21T05:36:23.119Z,18.06
2023-05-21T05:36:54.606Z,18.06
2023-05-21T05:37:26.042Z,18.08
2023-05-21T05:37:57.503Z,18.07
2023-05-21T05:38:28.935Z,18.08
2023-05-21T05:39:00.411Z,18.08
2023-05-21T05:39:31.869Z,18.09
2023-05-21T05:40:03.335Z,18.08
2023-05-21T05:40:34.762Z,18.10
2023-05-21T05:41:06.205Z,18.10
2023-05-21T05:41:37.693Z,18.09
2023-05-21T05:42:09.146Z,18.10
2023-05-21T05:42:40.585Z,18.10
2023-05-21T05:43:12.027Z,18.10
2023-05-21T05:43:43.489Z,18.11
2023-05-21T05:44:14.922Z,18.11
2023-05-21T05:44:46.366Z,18.11
2023-05-21T05:45:17.815Z,18.10
2023-05-21T05:45:49.265Z,18.11
2023-05-21T05:46:20.770Z,18.12
2023-05-21T05:46:52.267Z,18.12
2023-05-21T05:47:23.802Z,18.12
2023-05-21T05:47:55.378Z,18.12
2023-05-21T05:48:26.836Z,18.12
2023-05-21T05:48:58.287Z,18.12
2023-05-21T05:49:29.728Z,18.12
2023-05-21T05:50:01.211Z,18.12
2023-05-21T05:50:32.669Z,18.12
2023-05-21T05:51:04.140Z,18.14
2023-05-21T05:51:35.579Z,18.14
2023-05-21T05:52:07.051Z,18.13
2023-05-21T05:52:38.494Z,18.13
2023-05-21T05:53:09.946Z,18.14
2023-05-21T05:53:41.395Z,18.14
2023-05-21T05:54:12.829Z,18.15
2023-05-21T05:54:44.294Z,18.16
2023-05-21T05:55:15.788Z,18.15
2023-05-21T05:55:47.251Z,18.16
2023-05-21T05:56:18.731Z,18.16
2023-05-21T05:56:50.179Z,18.16
2023-05-21T05:57:21.652Z,18.16
2023-05-21T05:57:53.090Z,18.16
2023-05-21T05:58:24.545Z,18.17
2023-05-21T05:58:55.993Z,18.18
2023-05-21T05:59:27.453Z,18.17
2023-05-21T05:59:58.927Z,18.18
2023-05-21T06:00:30.908Z,18.18
2023-05-21T06:01:02.478Z,18.18
2023-05-21T06:01:33.919Z,18.18
2023-05-21T06:02:05.383Z,18.19
2023-05-21T06:02:36.937Z,18.20
2023-05-21T06:03:08.558Z,18.21
2023-05-21T06:03:40.339Z,18.21
2023-05-21T06:04:11.932Z,18.22
2023-05-21T06:04:43.382Z,18.23
2023-05-21T06:05:14.845Z,18.22
2023-05-21T06:05:46.388Z,18.22
2023-05-21T06:06:18.014Z,18.22
2023-05-21T06:06:49.508Z,18.23
2023-05-21T06:07:20.949Z,18.23
2023-05-21T06:07:52.390Z,18.23
2023-05-21T06:08:23.847Z,18.23
2023-05-21T06:08:55.321Z,18.24
2023-05-21T06:09:26.761Z,18.24
2023-05-21T06:09:58.200Z,18.24
2023-05-21T06:10:29.658Z,18.24
2023-05-21T06:11:01.129Z,18.25
2023-05-21T06:11:32.570Z,18.23
2023-05-21T06:12:04.027Z,18.24
2023-05-21T06:12:35.487Z,18.26
2023-05-21T06:13:06.956Z,18.25
2023-05-21T06:13:38.435Z,18.26
2023-05-21T06:14:09.891Z,18.26
2023-05-21T06:14:42.481Z,18.27
2023-05-21T06:15:15.840Z,18.27
2023-05-21T06:15:47.324Z,18.27
2023-05-21T06:16:18.862Z,18.27
2023-05-21T06:16:50.360Z,18.27
2023-05-21T06:17:21.836Z,18.28
2023-05-21T06:17:53.361Z,18.28
2023-05-21T06:18:24.870Z,18.28
2023-05-21T06:18:56.440Z,18.28
2023-05-21T06:19:27.976Z,18.28
2023-05-21T06:19:59.479Z,18.27
2023-05-21T06:20:30.938Z,18.29
2023-05-21T06:21:02.398Z,18.29
2023-05-21T06:21:33.847Z,18.30
2023-05-21T06:22:05.292Z,18.30
2023-05-21T06:22:36.740Z,18.30
2023-05-21T06:23:08.192Z,18.31
2023-05-21T06:23:39.624Z,18.30
2023-05-21T06:24:11.102Z,18.30
2023-05-21T06:24:42.553Z,18.31
2023-05-21T06:25:14.024Z,18.31
2023-05-21T06:25:45.471Z,18.32
2023-05-21T06:26:16.909Z,18.31
2023-05-21T06:26:48.343Z,18.32
2023-05-21T06:27:19.785Z,18.32
2023-05-21T06:27:51.218Z,18.32
2023-05-21T06:28:22.657Z,18.33
2023-05-21T06:28:54.089Z,18.33
2023-05-21T06:29:25.555Z,18.33
2023-05-21T06:29:57.015Z,18.33
2023-05-21T06:30:28.511Z,18.33
2023-05-21T06:30:59.978Z,18.34
2023-05-21T06:31:31.417Z,18.34
2023-05-21T06:32:02.865Z,18.34
2023-05-21T06:32:34.428Z,18.35
2023-05-21T06:33:05.996Z,18.35
2023-05-21T06:33:37.602Z,18.35
2023-05-21T06:34:09.146Z,18.35
2023-05-21T06:34:40.703Z,18.36
2023-05-21T06:35:12.143Z,18.36
2023-05-21T06:35:43.887Z,18.36
2023-05-21T06:36:15.613Z,18.35
2023-05-21T06:36:47.353Z,18.37
2023-05-21T06:37:18.963Z,18.37
2023-05-21T06:37:50.676Z,18.37
2023-05-21T06:38:22.400Z,18.37
2023-05-21T06:38:54.120Z,18.37
2023-05-21T06:39:25.886Z,18.38
2023-05-21T06:39:57.685Z,18.37
2023-05-21T06:40:29.422Z,18.38
2023-05-21T06:41:01.156Z,18.38
2023-05-21T06:41:32.944Z,18.38
2023-05-21T06:42:04.727Z,18.38
2023-05-21T06:42:36.484Z,18.38
2023-05-21T06:43:08.183Z,18.39
2023-05-21T06:43:39.835Z,18.39
2023-05-21T06:44:11.560Z,18.39
2023-05-21T06:44:43.338Z,18.39
2023-05-21T06:45:15.058Z,18.40
2023-05-21T06:45:46.847Z,18.40